Time;durP1;ratioP1;P1;durP2;ratioP2;P2;SDS_P1;SDS_P2;PMS_P1;PMS_P2;Temp;Humidity;BMP_temperature;BMP_pressure;BME280_temperature;BME280_humidity;BME280_pressure;Samples;Min_cycle;Max_cycle;Signal;HPM_P1;HPM_P2
2022/04/10 00:02:31;;;;;;;9.17;4.80;;;5.30;99.90;;;;;;5058576;28;20232;-60
2022/04/10 00:05:20;;;;;;;10.67;4.73;;;5.40;99.90;;;;;;5065397;28;20223;-59
2022/04/10 00:08:09;;;;;;;7.77;3.60;;;5.30;99.90;;;;;;5053539;28;20350;-60
2022/04/10 00:10:57;;;;;;;7.83;4.17;;;5.20;99.90;;;;;;5063110;28;20238;-60
2022/04/10 00:13:46;;;;;;;7.93;4.10;;;5.20;99.90;;;;;;5067146;28;20313;-64
2022/04/10 00:16:40;;;;;;;7.30;3.80;;;5.20;99.90;;;;;;5060264;28;20319;-59
2022/04/10 00:19:29;;;;;;;6.80;3.97;;;5.30;99.90;;;;;;5044752;28;20253;-60
2022/04/10 00:22:21;;;;;;;11.00;4.27;;;5.20;99.90;;;;;;5064712;28;20605;-59
2022/04/10 00:25:10;;;;;;;14.17;4.23;;;5.20;99.90;;;;;;5054503;28;20223;-60
2022/04/10 00:27:59;;;;;;;6.07;4.20;;;5.10;99.90;;;;;;5059847;28;20228;-59
2022/04/10 00:30:47;;;;;;;7.10;4.30;;;5.00;99.90;;;;;;5043055;28;20231;-59
2022/04/10 00:33:37;;;;;;;6.57;3.80;;;5.10;99.90;;;;;;5061237;28;20234;-60
2022/04/10 00:36:27;;;;;;;9.80;4.20;;;5.00;99.90;;;;;;5058094;28;20662;-60
2022/04/10 00:39:15;;;;;;;7.40;4.47;;;5.00;99.90;;;;;;5064575;28;20751;-60
2022/04/10 00:42:05;;;;;;;7.87;4.43;;;4.90;99.90;;;;;;5044509;28;20375;-60
2022/04/10 00:44:53;;;;;;;9.07;4.43;;;4.90;99.90;;;;;;5058932;28;20235;-60
2022/04/10 00:47:45;;;;;;;9.47;4.10;;;5.00;99.90;;;;;;5067327;28;20594;-60
2022/04/10 00:51:39;;;;;;;12.33;4.63;;;5.00;99.90;;;;;;5059316;28;20684;-60
2022/04/10 00:53:50;;;;;;;7.83;4.10;;;4.90;99.90;;;;;;5057289;28;20227;-60
2022/04/10 00:56:39;;;;;;;10.07;4.30;;;5.00;99.90;;;;;;5051994;28;20215;-59
2022/04/10 00:59:28;;;;;;;9.90;4.33;;;5.00;99.90;;;;;;5080676;28;20234;-59
2022/04/10 01:02:17;;;;;;;6.67;4.17;;;4.90;99.90;;;;;;5061739;28;20223;-60
2022/04/10 01:05:07;;;;;;;10.90;4.83;;;4.90;99.90;;;;;;5048019;28;20282;-60
2022/04/10 01:07:58;;;;;;;6.97;4.23;;;4.80;99.90;;;;;;5080590;28;20230;-59
2022/04/10 01:10:47;;;;;;;9.17;4.80;;;4.90;99.90;;;;;;5047939;28;20266;-60
2022/04/10 01:13:36;;;;;;;6.90;4.20;;;4.80;99.90;;;;;;5055258;28;20353;-58
2022/04/10 01:16:26;;;;;;;8.03;4.10;;;4.80;99.90;;;;;;5052805;28;20224;-59
2022/04/10 01:19:17;;;;;;;9.20;4.23;;;4.80;99.90;;;;;;5050778;28;20223;-58
2022/04/10 01:22:09;;;;;;;9.80;4.30;;;4.80;99.90;;;;;;5049208;28;20234;-58
2022/04/10 01:25:11;;;;;;;8.23;4.33;;;4.70;99.90;;;;;;5060514;28;20313;-59
2022/04/10 01:28:11;;;;;;;8.63;4.07;;;4.80;99.90;;;;;;5053799;28;20313;-58
2022/04/10 01:31:01;;;;;;;9.47;4.27;;;4.70;99.90;;;;;;5057905;28;20231;-59
2022/04/10 01:33:54;;;;;;;9.17;3.90;;;4.70;99.90;;;;;;5050740;28;20214;-59
2022/04/10 01:36:44;;;;;;;9.63;4.30;;;4.70;99.90;;;;;;5085150;28;20234;-58
2022/04/10 01:39:34;;;;;;;7.13;3.80;;;4.70;99.90;;;;;;5064713;28;20624;-60
2022/04/10 01:42:24;;;;;;;7.10;3.70;;;4.60;99.90;;;;;;5055862;28;20234;-58
2022/04/10 01:45:13;;;;;;;8.33;3.73;;;4.60;99.90;;;;;;5068195;28;20246;-59
2022/04/10 01:48:02;;;;;;;6.03;3.83;;;4.50;99.90;;;;;;5039448;28;20318;-58
2022/04/10 01:50:51;;;;;;;8.40;3.43;;;4.50;99.90;;;;;;5075571;28;20242;-59
2022/04/10 01:53:40;;;;;;;6.37;3.83;;;4.60;99.90;;;;;;5051283;28;20317;-59
2022/04/10 01:56:29;;;;;;;9.63;3.80;;;4.60;99.90;;;;;;5049432;28;20249;-59
2022/04/10 01:59:19;;;;;;;7.33;3.67;;;4.50;99.90;;;;;;5039508;28;20232;-58
2022/04/10 02:02:08;;;;;;;7.13;3.30;;;4.50;99.90;;;;;;5081209;28;20223;-57
2022/04/10 02:04:57;;;;;;;9.23;3.80;;;4.50;99.90;;;;;;5062478;28;20765;-59
2022/04/10 02:07:45;;;;;;;7.53;3.60;;;4.50;99.90;;;;;;5060954;28;20251;-61
2022/04/10 02:10:39;;;;;;;7.50;3.50;;;4.40;99.90;;;;;;5060876;28;20265;-60
2022/04/10 02:13:27;;;;;;;6.70;3.20;;;4.40;99.90;;;;;;5075077;28;20818;-59
2022/04/10 02:16:22;;;;;;;12.70;4.50;;;4.30;99.90;;;;;;5046986;28;20234;-59
2022/04/10 02:19:11;;;;;;;8.47;3.77;;;4.40;99.90;;;;;;5059371;28;20644;-60
2022/04/10 02:22:01;;;;;;;7.03;3.60;;;4.40;99.90;;;;;;5078246;28;20241;-61
2022/04/10 02:24:53;;;;;;;6.10;3.73;;;4.40;99.90;;;;;;5044484;28;20221;-58
2022/04/10 02:27:43;;;;;;;8.77;3.53;;;4.40;99.90;;;;;;5047587;28;20231;-60
2022/04/10 02:30:32;;;;;;;11.60;3.87;;;4.50;99.90;;;;;;5047714;28;20549;-59
2022/04/10 02:33:22;;;;;;;9.93;3.90;;;4.50;99.90;;;;;;5036788;28;20227;-59
2022/04/10 02:36:11;;;;;;;11.87;3.80;;;4.50;99.90;;;;;;5068559;28;20943;-58
2022/04/10 02:39:04;;;;;;;6.43;3.70;;;4.50;99.90;;;;;;5035319;28;20340;-59
2022/04/10 02:41:52;;;;;;;5.33;3.20;;;4.50;99.90;;;;;;5057554;28;20251;-59
2022/04/10 02:44:41;;;;;;;8.90;4.00;;;4.50;99.90;;;;;;5085741;28;20656;-59
2022/04/10 02:47:30;;;;;;;9.80;3.37;;;4.50;99.90;;;;;;5048439;28;20563;-58
2022/04/10 02:50:20;;;;;;;7.10;3.33;;;4.50;99.90;;;;;;5062627;28;20257;-60
2022/04/10 02:53:09;;;;;;;6.47;3.20;;;4.40;99.90;;;;;;5053093;28;20225;-59
2022/04/10 02:55:58;;;;;;;6.00;3.47;;;4.40;99.90;;;;;;5047002;28;20307;-58
2022/04/10 02:58:46;;;;;;;10.10;3.63;;;4.40;99.90;;;;;;5055963;28;20280;-59
2022/04/10 03:01:35;;;;;;;6.47;3.30;;;4.40;99.90;;;;;;5060641;28;20230;-60
2022/04/10 03:04:24;;;;;;;5.63;3.20;;;4.30;99.90;;;;;;5045192;28;20680;-59
2022/04/10 03:07:14;;;;;;;8.33;3.73;;;4.30;99.90;;;;;;5047875;28;20310;-58
2022/04/10 03:10:03;;;;;;;8.93;2.97;;;4.30;99.90;;;;;;5046160;28;20292;-59
2022/04/10 03:12:52;;;;;;;7.93;3.33;;;4.20;99.90;;;;;;5057035;28;20537;-60
2022/04/10 03:15:41;;;;;;;8.47;3.60;;;4.20;99.90;;;;;;5059245;28;20216;-59
2022/04/10 03:18:30;;;;;;;8.40;3.20;;;4.20;99.90;;;;;;5046228;28;20724;-60
2022/04/10 03:21:18;;;;;;;7.50;3.00;;;4.20;99.90;;;;;;5047579;28;20230;-59
2022/04/10 03:24:09;;;;;;;7.87;3.40;;;4.10;99.90;;;;;;5061558;28;20231;-59
2022/04/10 03:26:58;;;;;;;8.23;3.20;;;4.10;99.90;;;;;;5051957;28;20232;-58
2022/04/10 03:29:47;;;;;;;8.07;2.97;;;4.10;99.90;;;;;;5062277;28;20261;-60
2022/04/10 03:32:36;;;;;;;6.83;3.33;;;4.10;99.90;;;;;;5048661;28;20237;-59
2022/04/10 03:35:24;;;;;;;7.60;3.40;;;4.00;99.90;;;;;;5065405;28;20227;-59
2022/04/10 03:38:13;;;;;;;6.17;3.23;;;4.00;99.90;;;;;;5050888;28;20228;-56
2022/04/10 03:41:04;;;;;;;8.80;3.20;;;4.00;99.90;;;;;;5053170;28;20226;-57
2022/04/10 03:43:53;;;;;;;7.73;3.20;;;4.00;99.90;;;;;;5064022;28;20781;-57
2022/04/10 03:46:41;;;;;;;10.70;4.07;;;4.00;99.90;;;;;;5071197;28;20251;-58
2022/04/10 03:49:30;;;;;;;10.87;3.87;;;3.90;99.90;;;;;;5072967;28;20658;-59
2022/04/10 03:52:19;;;;;;;8.73;3.43;;;3.90;99.90;;;;;;5049563;28;20370;-58
2022/04/10 03:55:12;;;;;;;8.63;3.17;;;3.90;99.90;;;;;;5048557;28;20343;-59
2022/04/10 03:58:02;;;;;;;10.73;3.47;;;4.00;99.90;;;;;;5052675;28;20241;-58
2022/04/10 04:00:51;;;;;;;7.70;3.03;;;3.90;99.90;;;;;;5037881;28;20257;-58
2022/04/10 04:03:40;;;;;;;9.47;4.03;;;3.90;99.90;;;;;;5046759;28;20226;-59
2022/04/10 04:06:30;;;;;;;10.97;3.23;;;3.80;99.90;;;;;;5040235;28;20286;-60
2022/04/10 04:09:18;;;;;;;12.73;3.67;;;3.90;99.90;;;;;;5054500;28;20304;-58
2022/04/10 04:12:09;;;;;;;8.97;3.40;;;4.00;99.90;;;;;;5058706;28;20228;-57
2022/04/10 04:15:00;;;;;;;13.00;3.70;;;4.00;99.90;;;;;;5075386;28;20220;-58
2022/04/10 04:17:49;;;;;;;8.07;3.30;;;4.00;99.90;;;;;;5056871;28;20304;-60
2022/04/10 04:20:39;;;;;;;11.27;3.77;;;4.00;99.90;;;;;;5044190;28;20866;-56
2022/04/10 04:23:27;;;;;;;11.00;3.80;;;4.00;99.90;;;;;;5052289;28;20738;-55
2022/04/10 04:26:16;;;;;;;7.40;3.30;;;4.00;99.90;;;;;;5039662;28;20306;-61
2022/04/10 04:29:05;;;;;;;8.87;3.90;;;4.00;99.90;;;;;;5052207;28;20233;-57
2022/04/10 04:31:55;;;;;;;7.63;3.97;;;4.10;99.90;;;;;;5070157;28;20227;-59
2022/04/10 04:34:44;;;;;;;10.73;3.90;;;4.10;99.90;;;;;;5075711;28;20324;-59
2022/04/10 04:37:35;;;;;;;10.83;4.50;;;4.20;99.90;;;;;;5047087;28;20570;-60
2022/04/10 04:40:28;;;;;;;8.10;3.40;;;4.20;99.90;;;;;;5071031;28;20562;-59
2022/04/10 04:43:17;;;;;;;6.43;3.73;;;4.20;99.90;;;;;;5060457;28;20884;-59
2022/04/10 04:46:07;;;;;;;9.23;3.37;;;4.20;99.90;;;;;;5064692;28;20230;-59
2022/04/10 04:48:57;;;;;;;11.33;4.30;;;4.30;99.90;;;;;;5044667;28;20319;-60
2022/04/10 04:51:46;;;;;;;7.97;3.77;;;4.30;99.90;;;;;;5055861;28;20230;-58
2022/04/10 04:54:35;;;;;;;9.63;4.03;;;4.30;99.90;;;;;;5077024;28;20246;-60
2022/04/10 04:57:24;;;;;;;6.87;3.40;;;4.30;99.90;;;;;;5034793;28;20222;-58
2022/04/10 05:00:15;;;;;;;10.60;3.57;;;4.40;99.90;;;;;;5047027;28;20688;-59
2022/04/10 05:03:13;;;;;;;7.47;3.60;;;4.40;99.90;;;;;;5046807;28;20253;-58
2022/04/10 05:06:03;;;;;;;9.37;3.70;;;4.30;99.90;;;;;;5047448;28;20232;-59
2022/04/10 05:08:52;;;;;;;7.30;3.90;;;4.50;99.90;;;;;;5057896;28;20264;-60
2022/04/10 05:11:46;;;;;;;9.73;3.60;;;4.60;99.90;;;;;;5066034;28;20288;-58
2022/04/10 05:14:34;;;;;;;8.90;3.40;;;4.60;99.90;;;;;;5053212;28;20766;-59
2022/04/10 05:17:26;;;;;;;11.30;3.83;;;4.60;99.90;;;;;;5044205;28;20216;-59
2022/04/10 05:20:16;;;;;;;11.40;3.53;;;4.70;99.90;;;;;;5054378;28;20246;-59
2022/04/10 05:23:16;;;;;;;12.10;4.00;;;4.80;99.90;;;;;;5036432;28;20268;-59
2022/04/10 05:26:07;;;;;;;12.20;3.80;;;4.90;99.90;;;;;;5037556;28;20233;-59
2022/04/10 05:28:57;;;;;;;10.20;3.60;;;5.00;99.90;;;;;;5046109;28;20317;-58
2022/04/10 05:31:49;;;;;;;11.13;3.80;;;5.10;99.90;;;;;;5078641;28;20221;-59
2022/04/10 05:34:39;;;;;;;8.03;3.57;;;5.00;99.90;;;;;;5043755;28;20913;-61
2022/04/10 05:37:28;;;;;;;10.27;3.67;;;5.10;99.90;;;;;;5047507;28;20226;-58
2022/04/10 05:40:22;;;;;;;10.77;3.87;;;5.20;99.90;;;;;;5062754;28;20235;-59
2022/04/10 05:43:11;;;;;;;10.93;4.40;;;5.40;99.90;;;;;;5058176;28;20220;-59
2022/04/10 05:46:01;;;;;;;13.23;3.50;;;5.60;99.90;;;;;;5063767;28;20227;-59
2022/04/10 05:48:51;;;;;;;8.77;3.40;;;5.60;99.90;;;;;;5047894;28;20224;-59
2022/04/10 05:51:41;;;;;;;8.57;3.33;;;5.70;99.90;;;;;;5046401;28;20228;-58
2022/04/10 05:54:30;;;;;;;13.53;3.30;;;5.60;99.90;;;;;;5053749;28;20216;-58
2022/04/10 05:57:22;;;;;;;8.90;3.37;;;5.60;99.90;;;;;;5049215;28;20305;-60
2022/04/10 06:00:15;;;;;;;8.67;3.93;;;5.80;99.90;;;;;;5050133;28;20227;-59
2022/04/10 06:03:10;;;;;;;7.63;3.17;;;5.80;99.90;;;;;;5059317;28;20227;-59
2022/04/10 06:06:02;;;;;;;10.70;4.07;;;5.80;99.90;;;;;;5052237;28;20235;-60
2022/04/10 06:08:59;;;;;;;11.47;3.77;;;6.10;99.90;;;;;;5075335;28;20221;-60
2022/04/10 06:11:50;;;;;;;8.77;3.17;;;6.40;99.90;;;;;;5051605;28;20581;-58
2022/04/10 06:14:41;;;;;;;8.73;3.40;;;6.40;99.90;;;;;;5055821;28;20261;-58
2022/04/10 06:17:32;;;;;;;8.10;3.30;;;6.40;99.90;;;;;;5046929;28;20213;-58
2022/04/10 06:20:22;;;;;;;6.83;3.23;;;6.50;99.90;;;;;;5048739;28;20239;-58
2022/04/10 06:23:11;;;;;;;6.93;3.37;;;6.50;99.90;;;;;;5078795;28;20225;-58
2022/04/10 06:26:02;;;;;;;7.10;3.17;;;6.70;99.90;;;;;;5078544;28;20413;-60
2022/04/10 06:28:51;;;;;;;10.17;3.73;;;6.60;99.90;;;;;;5039058;28;20224;-59
2022/04/10 06:31:49;;;;;;;6.40;3.23;;;6.60;99.90;;;;;;5044096;28;20718;-61
2022/04/10 06:34:39;;;;;;;9.63;3.40;;;6.40;99.90;;;;;;5054286;28;20407;-59
2022/04/10 06:37:30;;;;;;;8.87;3.63;;;6.40;99.90;;;;;;5039910;28;20227;-59
2022/04/10 06:40:22;;;;;;;7.23;3.63;;;6.50;99.90;;;;;;5049497;28;20223;-59
2022/04/10 06:43:11;;;;;;;7.93;3.67;;;6.50;99.90;;;;;;5048760;28;20312;-58
2022/04/10 06:46:23;;;;;;;8.00;3.40;;;6.70;99.90;;;;;;5062601;28;21020;-59
2022/04/10 06:49:45;;;;;;;8.27;3.43;;;6.80;99.90;;;;;;5062278;28;20715;-59
2022/04/10 06:52:36;;;;;;;10.93;3.70;;;6.90;99.90;;;;;;5068598;28;20240;-58
2022/04/10 06:55:25;;;;;;;10.80;3.60;;;7.10;99.90;;;;;;5064756;28;20231;-58
2022/04/10 06:58:15;;;;;;;10.53;3.90;;;7.00;99.90;;;;;;5062330;28;20215;-57
2022/04/10 07:01:04;;;;;;;11.23;4.00;;;7.20;99.90;;;;;;5054786;28;20228;-59
2022/04/10 07:03:53;;;;;;;7.93;4.00;;;7.40;99.90;;;;;;5049926;28;20249;-62
2022/04/10 07:06:50;;;;;;;7.67;3.90;;;9.20;99.90;;;;;;5043266;28;20240;-59
2022/04/10 07:09:39;;;;;;;7.57;4.07;;;8.90;99.90;;;;;;5044603;28;20991;-59
2022/04/10 07:12:28;;;;;;;8.57;4.20;;;8.60;99.90;;;;;;5079408;28;20537;-59
2022/04/10 07:15:19;;;;;;;7.72;3.63;;;9.80;99.90;;;;;;5050156;28;20227;-55
2022/04/10 07:18:15;;;;;;;8.82;3.90;;;10.50;99.90;;;;;;5051215;28;20736;-58
2022/04/10 07:21:04;;;;;;;12.23;4.47;;;10.00;99.90;;;;;;5050249;28;20749;-59
2022/04/10 07:23:56;;;;;;;7.15;4.25;;;8.80;99.90;;;;;;5045941;28;20326;-61
2022/04/10 07:26:52;;;;;;;10.07;4.03;;;9.50;99.90;;;;;;5071453;28;20220;-57
2022/04/10 07:29:44;;;;;;;9.18;3.80;;;11.70;99.90;;;;;;5047387;28;20262;-59
2022/04/10 07:32:37;;;;;;;5.97;3.55;;;11.60;99.90;;;;;;5074348;28;20252;-59
2022/04/10 07:35:35;;;;;;;6.82;3.50;;;11.80;99.90;;;;;;5051114;28;20287;-59
2022/04/10 07:38:29;;;;;;;7.15;3.60;;;10.70;99.90;;;;;;5049343;28;20225;-59
2022/04/10 07:41:22;;;;;;;8.82;3.50;;;9.50;99.90;;;;;;5062174;28;20236;-59
2022/04/10 07:44:13;;;;;;;7.60;3.90;;;8.90;99.90;;;;;;5047595;28;20860;-58
2022/04/10 07:50:09;;;;;;;6.28;3.50;;;11.00;99.90;;;;;;5035510;28;20365;-59
2022/04/10 07:52:58;;;;;;;9.38;3.67;;;9.40;99.90;;;;;;5053005;28;20239;-59
2022/04/10 07:55:48;;;;;;;8.10;4.13;;;9.30;99.90;;;;;;5068482;28;20231;-59
2022/04/10 07:58:38;;;;;;;7.50;4.00;;;9.20;99.90;;;;;;5048749;28;20543;-59
2022/04/10 08:01:40;;;;;;;9.73;3.70;;;8.60;99.90;;;;;;5058993;28;20239;-58
2022/04/10 08:04:33;;;;;;;8.43;3.73;;;8.40;99.90;;;;;;5056722;28;20226;-58
2022/04/10 08:07:40;;;;;;;14.43;3.53;;;10.40;99.90;;;;;;5061523;28;20242;-59
2022/04/10 08:10:29;;;;;;;4.63;3.13;;;9.40;99.90;;;;;;5058003;28;20907;-58
2022/04/10 08:13:18;;;;;;;6.57;3.30;;;9.30;99.90;;;;;;5069199;28;20223;-59
2022/04/10 08:16:08;;;;;;;7.47;3.23;;;10.00;99.90;;;;;;5064952;28;20232;-60
2022/04/10 08:18:56;;;;;;;9.00;3.03;;;9.00;99.90;;;;;;5063421;28;20226;-61
2022/04/10 08:21:45;;;;;;;10.27;3.40;;;8.70;99.90;;;;;;5063487;28;20231;-59
2022/04/10 08:24:34;;;;;;;5.60;2.90;;;12.50;99.90;;;;;;5054969;28;20635;-59
2022/04/10 08:27:22;;;;;;;6.10;2.97;;;11.40;99.00;;;;;;5045971;28;20245;-61
2022/04/10 08:30:15;;;;;;;8.32;3.17;;;12.90;95.70;;;;;;5047154;28;20220;-61
2022/04/10 08:33:05;;;;;;;8.45;3.33;;;11.00;99.00;;;;;;5054581;28;20218;-59
2022/04/10 08:35:54;;;;;;;8.93;2.80;;;11.20;99.90;;;;;;5041659;28;20284;-62
2022/04/10 08:38:43;;;;;;;9.40;3.20;;;10.00;99.90;;;;;;5044444;28;20590;-60
2022/04/10 08:41:33;;;;;;;7.57;3.33;;;9.50;99.90;;;;;;5057155;28;20312;-61
2022/04/10 08:44:23;;;;;;;6.80;2.70;;;9.40;99.90;;;;;;5049868;28;20224;-59
2022/04/10 08:47:14;;;;;;;5.85;3.00;;;9.20;99.90;;;;;;5057932;28;20221;-62
2022/04/10 08:50:04;;;;;;;10.27;3.00;;;9.40;99.90;;;;;;5058156;28;20227;-62
2022/04/10 08:52:56;;;;;;;6.18;2.92;;;10.20;99.90;;;;;;5060677;28;20224;-60
2022/04/10 08:55:45;;;;;;;5.63;2.80;;;9.90;99.90;;;;;;5059890;28;20224;-63
2022/04/10 08:58:34;;;;;;;7.00;3.00;;;9.70;99.90;;;;;;5062972;28;21168;-61
2022/04/10 09:01:23;;;;;;;6.33;3.03;;;9.20;99.90;;;;;;5038661;28;20216;-59
2022/04/10 09:04:12;;;;;;;6.90;2.70;;;8.90;99.90;;;;;;5064266;28;21619;-59
2022/04/10 09:07:03;;;;;;;7.10;3.10;;;8.60;99.90;;;;;;5060626;28;20228;-58
2022/04/10 09:09:57;;;;;;;8.03;2.73;;;8.60;99.90;;;;;;5067572;28;21071;-59
2022/04/10 16:30:40;;;;;;;7.97;4.77;;;7.80;99.90;;;;;;5044975;28;20894;-59
2022/04/10 16:33:30;;;;;;;12.33;5.37;;;7.90;99.90;;;;;;5051936;28;20722;-62
2022/04/10 16:36:19;;;;;;;10.20;5.00;;;7.80;99.90;;;;;;5057585;28;20240;-59
2022/04/10 16:39:08;;;;;;;10.03;5.23;;;7.80;99.90;;;;;;5065379;28;20225;-59
2022/04/10 16:41:56;;;;;;;12.97;5.30;;;7.90;99.90;;;;;;5048031;28;20223;-58
2022/04/10 16:44:46;;;;;;;9.33;4.87;;;7.80;99.90;;;;;;5064983;28;20243;-58
2022/04/10 16:47:34;;;;;;;9.50;4.60;;;7.80;99.90;;;;;;5048628;28;20230;-58
2022/04/10 16:50:23;;;;;;;13.93;4.70;;;7.80;99.90;;;;;;5058886;28;20258;-59
2022/04/10 16:53:12;;;;;;;7.03;4.10;;;7.70;99.90;;;;;;5047904;28;20232;-59
2022/04/10 16:56:01;;;;;;;9.80;4.77;;;7.70;99.90;;;;;;5044254;28;20225;-58
2022/04/10 16:58:49;;;;;;;8.17;4.17;;;7.70;99.90;;;;;;5039896;28;20583;-58
2022/04/10 17:01:39;;;;;;;7.27;4.23;;;7.70;99.90;;;;;;5036328;28;20244;-58
2022/04/10 17:04:28;;;;;;;9.60;4.57;;;7.70;99.90;;;;;;5041403;28;20223;-58
2022/04/10 17:07:23;;;;;;;12.07;4.83;;;7.70;99.90;;;;;;5042761;28;20271;-58
2022/04/10 17:10:12;;;;;;;9.37;4.70;;;7.60;99.90;;;;;;5042720;28;20220;-60
2022/04/10 17:13:01;;;;;;;8.67;4.63;;;7.60;99.90;;;;;;5044665;28;20225;-59
2022/04/10 17:15:50;;;;;;;10.87;4.47;;;7.50;99.90;;;;;;5036145;28;20229;-58
2022/04/10 17:18:48;;;;;;;12.20;4.47;;;7.50;99.90;;;;;;5036933;28;20222;-59
2022/04/10 17:21:37;;;;;;;10.93;5.13;;;7.50;99.90;;;;;;5037220;28;20225;-58
2022/04/10 17:24:26;;;;;;;9.63;5.40;;;7.50;99.90;;;;;;5043154;28;20418;-56
2022/04/10 17:27:14;;;;;;;11.47;5.53;;;7.50;99.90;;;;;;5048858;28;20551;-59
2022/04/10 17:30:07;;;;;;;10.30;5.27;;;7.50;99.90;;;;;;5065529;28;20698;-59
2022/04/10 17:32:56;;;;;;;11.80;5.70;;;7.40;99.90;;;;;;5066482;28;20223;-57
2022/04/10 17:35:46;;;;;;;14.53;6.53;;;7.30;99.90;;;;;;5079112;28;20296;-58
2022/04/10 17:38:35;;;;;;;13.63;6.47;;;7.30;99.90;;;;;;5050253;28;20225;-58
2022/04/10 17:41:23;;;;;;;9.67;5.80;;;7.20;99.90;;;;;;5048767;28;20231;-59
2022/04/10 17:44:13;;;;;;;10.83;6.20;;;7.20;99.90;;;;;;5053604;28;20683;-59
2022/04/10 17:47:02;;;;;;;13.60;6.03;;;7.20;99.90;;;;;;5031083;28;20746;-60
2022/04/10 17:49:51;;;;;;;10.87;5.90;;;7.10;99.90;;;;;;5036911;28;20220;-58
2022/04/10 17:52:45;;;;;;;11.67;6.23;;;7.00;99.90;;;;;;5061245;28;20832;-59
2022/04/10 17:55:33;;;;;;;14.23;6.70;;;7.00;99.90;;;;;;5059773;28;20949;-58
2022/04/10 17:58:22;;;;;;;14.70;7.30;;;7.00;99.90;;;;;;5054393;28;20672;-58
2022/04/10 18:01:36;;;;;;;17.27;6.70;;;7.00;99.90;;;;;;5059760;28;20282;-58
2022/04/10 18:04:25;;;;;;;14.43;7.30;;;7.00;99.90;;;;;;5045762;28;20234;-58
2022/04/10 18:07:14;;;;;;;14.03;7.20;;;6.80;99.90;;;;;;5051500;28;20228;-58
2022/04/10 18:10:05;;;;;;;16.13;7.23;;;6.70;99.90;;;;;;5055128;28;20750;-62
2022/04/10 18:12:53;;;;;;;13.90;7.20;;;6.80;99.90;;;;;;5059926;28;20939;-57
2022/04/10 18:15:42;;;;;;;14.63;7.23;;;6.90;99.90;;;;;;5053541;28;20232;-57
2022/04/10 18:18:31;;;;;;;16.63;7.57;;;6.80;99.90;;;;;;5044519;28;20243;-60
2022/04/10 18:21:20;;;;;;;14.23;7.97;;;6.80;99.90;;;;;;5050135;28;20229;-59
2022/04/10 18:24:09;;;;;;;15.67;7.93;;;6.80;99.90;;;;;;5040443;28;20248;-59
2022/04/10 18:27:00;;;;;;;15.37;8.30;;;6.80;99.90;;;;;;5044280;28;20295;-59
2022/04/10 18:29:50;;;;;;;14.90;8.23;;;6.90;99.90;;;;;;5054038;28;20280;-59
2022/04/10 18:32:42;;;;;;;16.90;9.77;;;6.80;99.90;;;;;;5046363;28;20738;-61
2022/04/10 18:35:31;;;;;;;22.60;10.03;;;6.60;99.90;;;;;;5055341;28;20742;-58
2022/04/10 18:38:20;;;;;;;20.30;10.23;;;6.70;99.90;;;;;;5048525;28;20223;-57
2022/04/10 18:41:09;;;;;;;16.53;10.37;;;6.70;99.90;;;;;;5059051;28;20274;-59
2022/04/10 18:44:00;;;;;;;24.03;11.37;;;6.70;99.90;;;;;;5052762;28;20217;-58
2022/04/10 18:46:49;;;;;;;22.47;10.77;;;6.80;99.90;;;;;;5043761;28;20237;-57
2022/04/10 18:49:39;;;;;;;20.83;10.60;;;6.70;99.90;;;;;;5047162;28;20225;-59
2022/04/10 18:52:28;;;;;;;19.87;10.50;;;6.70;99.90;;;;;;5049320;28;20220;-59
2022/04/10 18:55:17;;;;;;;20.37;11.40;;;6.50;99.90;;;;;;5048711;28;20246;-58
2022/04/10 18:58:05;;;;;;;24.53;11.53;;;6.60;99.90;;;;;;5040586;28;20231;-60
2022/04/10 19:00:55;;;;;;;19.70;11.33;;;6.60;99.90;;;;;;5047397;28;20228;-59
2022/04/10 19:03:47;;;;;;;19.60;11.10;;;6.60;99.90;;;;;;5052817;28;20292;-58
2022/04/10 19:06:36;;;;;;;24.70;11.53;;;6.60;99.90;;;;;;5060070;28;21849;-59
2022/04/10 19:09:24;;;;;;;21.47;11.37;;;6.60;99.90;;;;;;5053850;28;20265;-60
2022/04/10 19:12:13;;;;;;;24.73;13.00;;;6.60;99.90;;;;;;5058991;28;20246;-58
2022/04/10 19:15:02;;;;;;;25.17;14.33;;;6.50;99.90;;;;;;5053102;28;20225;-58
2022/04/10 19:17:53;;;;;;;26.03;12.00;;;6.50;99.90;;;;;;5053794;28;20220;-58
2022/04/10 19:20:42;;;;;;;24.07;12.37;;;6.50;99.90;;;;;;5056356;28;20636;-59
2022/04/10 19:23:30;;;;;;;20.83;11.33;;;6.50;99.90;;;;;;5052128;28;20227;-57
2022/04/10 19:26:20;;;;;;;21.73;11.23;;;6.50;99.90;;;;;;5047619;28;20251;-58
2022/04/10 19:29:08;;;;;;;18.73;10.90;;;6.40;99.90;;;;;;5047293;28;20229;-58
2022/04/10 19:31:58;;;;;;;19.93;11.53;;;6.40;99.90;;;;;;5051868;28;20275;-58
2022/04/10 19:34:49;;;;;;;21.03;11.80;;;6.40;99.90;;;;;;5030076;28;20595;-59
2022/04/10 19:37:37;;;;;;;21.07;11.23;;;6.40;99.90;;;;;;5045955;28;20227;-59
2022/04/10 19:40:26;;;;;;;22.20;10.70;;;6.30;99.90;;;;;;5035910;28;20733;-59
2022/04/10 19:43:15;;;;;;;17.83;10.47;;;6.30;99.90;;;;;;5040933;28;20227;-59
2022/04/10 19:46:03;;;;;;;18.93;10.60;;;6.20;99.90;;;;;;5055688;28;20224;-59
2022/04/10 19:48:54;;;;;;;19.60;10.60;;;6.20;99.90;;;;;;5054502;28;20230;-58
2022/04/10 19:51:44;;;;;;;18.70;10.30;;;6.20;99.90;;;;;;5058617;28;20278;-59
2022/04/10 19:54:33;;;;;;;17.90;10.77;;;6.10;99.90;;;;;;5036390;28;20228;-57
2022/04/10 19:57:22;;;;;;;18.47;10.13;;;6.10;99.90;;;;;;5044641;28;20350;-59
2022/04/10 20:00:12;;;;;;;19.73;10.03;;;6.10;99.90;;;;;;5051263;28;20231;-60
2022/04/10 20:03:01;;;;;;;19.73;10.97;;;6.00;99.90;;;;;;5053134;28;20232;-58
2022/04/10 20:05:50;;;;;;;21.43;10.73;;;6.00;99.90;;;;;;5049617;28;20298;-59
2022/04/10 20:08:40;;;;;;;22.97;10.90;;;6.00;99.90;;;;;;5049549;28;20236;-59
2022/04/10 20:11:28;;;;;;;18.40;9.87;;;5.90;99.90;;;;;;5046666;28;20247;-60
2022/04/10 20:14:19;;;;;;;19.77;10.50;;;5.90;99.90;;;;;;5048931;28;20224;-61
2022/04/10 20:17:07;;;;;;;25.83;11.33;;;5.90;99.90;;;;;;5060471;28;20753;-60
2022/04/10 20:19:56;;;;;;;19.47;11.40;;;5.90;99.90;;;;;;5032813;28;20235;-60
2022/04/10 20:22:45;;;;;;;23.13;11.43;;;5.90;99.90;;;;;;5031191;28;20231;-58
2022/04/10 20:25:36;;;;;;;21.63;11.80;;;5.80;99.90;;;;;;5058751;28;20247;-58
2022/04/10 20:28:25;;;;;;;22.80;12.57;;;5.70;99.90;;;;;;5032744;28;20232;-58
2022/04/10 20:31:13;;;;;;;22.47;12.77;;;5.70;99.90;;;;;;5046385;28;20303;-58
2022/04/10 20:34:02;;;;;;;22.77;12.27;;;5.60;99.90;;;;;;5044208;28;20219;-60
2022/04/10 20:36:51;;;;;;;22.13;12.80;;;5.70;99.90;;;;;;5040795;28;20228;-59
2022/04/10 20:39:40;;;;;;;27.73;15.63;;;5.70;99.90;;;;;;5048216;28;20221;-58
2022/04/10 20:42:30;;;;;;;23.47;12.67;;;5.60;99.90;;;;;;5041535;28;20747;-59
2022/04/10 20:45:19;;;;;;;26.60;13.30;;;5.60;99.90;;;;;;5039584;28;20810;-60
2022/04/10 20:48:08;;;;;;;26.00;13.07;;;5.60;99.90;;;;;;5036328;28;20531;-58
2022/04/10 20:50:57;;;;;;;27.47;13.53;;;5.60;99.90;;;;;;5046798;28;20682;-58
2022/04/10 20:53:46;;;;;;;25.67;13.40;;;5.70;99.90;;;;;;5057829;28;20225;-58
2022/04/10 20:56:35;;;;;;;27.13;12.73;;;5.80;99.90;;;;;;5044861;28;20251;-59
2022/04/10 20:59:26;;;;;;;24.40;12.27;;;5.80;99.90;;;;;;5047693;28;20230;-55
2022/04/10 21:02:14;;;;;;;22.03;12.07;;;5.90;99.90;;;;;;5044227;28;20236;-59
2022/04/10 21:05:06;;;;;;;26.97;13.93;;;5.90;99.90;;;;;;5044238;28;20224;-59
2022/04/10 21:07:55;;;;;;;26.40;12.80;;;5.80;99.90;;;;;;5032339;28;20212;-58
2022/04/10 21:10:56;;;;;;;24.60;12.67;;;5.80;99.90;;;;;;5047071;28;20967;-57
2022/04/10 21:13:46;;;;;;;24.10;13.60;;;5.80;99.90;;;;;;5046245;28;20336;-59
2022/04/10 21:16:36;;;;;;;26.70;14.10;;;5.90;99.90;;;;;;5048780;28;20509;-58
2022/04/10 21:19:25;;;;;;;23.70;13.27;;;5.80;99.90;;;;;;5047841;28;20288;-58
2022/04/10 21:22:13;;;;;;;23.43;13.23;;;5.80;99.90;;;;;;5036753;28;20231;-58
2022/04/10 21:25:02;;;;;;;23.63;13.67;;;5.80;99.90;;;;;;5050154;28;20223;-58
2022/04/10 21:27:50;;;;;;;24.03;13.57;;;5.70;99.90;;;;;;5049600;28;20227;-58
2022/04/10 21:30:39;;;;;;;26.17;14.40;;;5.70;99.90;;;;;;5057132;28;20688;-59
2022/04/10 21:33:29;;;;;;;27.57;14.30;;;5.70;99.90;;;;;;5052535;28;20228;-57
2022/04/10 21:36:18;;;;;;;27.33;14.50;;;5.70;99.90;;;;;;5049587;28;20228;-59
2022/04/10 21:39:07;;;;;;;24.17;13.73;;;5.60;99.90;;;;;;5051327;28;20887;-59
2022/04/10 21:41:56;;;;;;;28.90;13.87;;;5.60;99.90;;;;;;5052160;28;20741;-58
2022/04/10 21:44:44;;;;;;;27.83;14.50;;;5.40;99.90;;;;;;5065767;28;20224;-54
2022/04/10 21:47:33;;;;;;;28.17;13.90;;;5.50;99.90;;;;;;5056815;28;20232;-59
2022/04/10 21:50:23;;;;;;;28.87;14.03;;;5.40;99.90;;;;;;5050415;28;20237;-60
2022/04/10 21:53:12;;;;;;;25.53;13.77;;;5.40;99.90;;;;;;5052514;28;21361;-59
2022/04/10 21:56:01;;;;;;;26.40;13.50;;;5.40;99.90;;;;;;5040960;28;20749;-59
2022/04/10 21:58:50;;;;;;;22.33;12.43;;;5.40;99.90;;;;;;5053829;28;20227;-57
2022/04/10 22:01:41;;;;;;;20.77;12.40;;;5.40;99.90;;;;;;5037416;28;20228;-58
2022/04/10 22:04:29;;;;;;;25.53;12.87;;;5.40;99.90;;;;;;5045454;28;20243;-59
2022/04/10 22:07:20;;;;;;;27.80;12.97;;;5.30;99.90;;;;;;5041501;28;20699;-59
2022/04/10 22:10:11;;;;;;;24.17;12.70;;;5.30;99.90;;;;;;5044074;28;20227;-58